createdAt,value
2018-11-14T00:02:15.869Z,8.40
2018-11-14T00:13:38.741Z,8.20
2018-11-14T00:16:09.427Z,8.20
2018-11-14T00:18:39.548Z,8.20
2018-11-14T00:21:09.657Z,8.20
2018-11-14T00:23:40.030Z,8.10
2018-11-14T00:26:10.298Z,8.20
2018-11-14T00:28:40.459Z,8.20
2018-11-14T00:31:11.009Z,8.20
2018-11-14T00:33:42.455Z,8.20
2018-11-14T00:36:13.248Z,8.30
2018-11-14T00:38:43.594Z,8.30
2018-11-14T00:41:14.888Z,8.30
2018-11-14T00:43:45.798Z,8.30
2018-11-14T00:46:16.872Z,8.30
2018-11-14T00:48:48.884Z,8.30
2018-11-14T00:51:19.756Z,8.30
2018-11-14T00:53:49.846Z,8.30
2018-11-14T00:56:20.194Z,8.30
2018-11-14T00:58:50.946Z,8.30
2018-11-14T01:01:21.303Z,8.30
2018-11-14T01:03:52.302Z,8.30
2018-11-14T01:06:24.146Z,8.20
2018-11-14T01:08:54.172Z,8.20
2018-11-14T01:11:25.554Z,8.10
2018-11-14T01:13:55.881Z,8.10
2018-11-14T01:16:26.050Z,8.10
2018-11-14T01:18:56.305Z,8.10
2018-11-14T01:21:26.571Z,8.10
2018-11-14T01:23:57.112Z,8.00
2018-11-14T01:26:27.944Z,8.00
2018-11-14T01:28:58.287Z,8.00
2018-11-14T01:31:28.258Z,8.00
2018-11-14T01:33:58.399Z,7.80
2018-11-14T01:36:28.899Z,7.70
2018-11-14T01:39:00.389Z,7.70
2018-11-14T01:41:30.296Z,7.80
2018-11-14T01:44:00.435Z,7.80
2018-11-14T01:46:30.813Z,7.80
2018-11-14T01:49:01.755Z,7.70
2018-11-14T01:51:31.751Z,7.60
2018-11-14T01:54:01.986Z,7.70
2018-11-14T01:56:33.624Z,7.60
2018-11-14T01:59:03.859Z,7.60
2018-11-14T02:01:33.843Z,7.60
2018-11-14T02:04:03.751Z,7.50
2018-11-14T02:06:33.791Z,7.50
2018-11-14T02:09:04.364Z,7.40
2018-11-14T02:11:35.127Z,7.50
2018-11-14T02:14:06.093Z,7.50
2018-11-14T02:16:36.028Z,7.50
2018-11-14T02:19:06.573Z,7.50
2018-11-14T02:21:36.735Z,7.50
2018-11-14T02:24:06.955Z,7.50
2018-11-14T02:26:37.115Z,7.60
2018-11-14T02:29:07.416Z,7.60
2018-11-14T02:31:37.492Z,7.60
2018-11-14T02:34:08.212Z,7.60
2018-11-14T02:36:38.679Z,7.60
2018-11-14T02:39:08.948Z,7.60
2018-11-14T02:41:39.437Z,7.60
2018-11-14T02:44:10.073Z,7.60
2018-11-14T02:46:40.429Z,7.50
2018-11-14T02:49:12.186Z,7.50
2018-11-14T02:51:43.165Z,7.50
2018-11-14T02:54:14.667Z,7.50
2018-11-14T02:56:44.812Z,7.40
2018-11-14T02:59:15.060Z,7.40
2018-11-14T03:01:46.115Z,7.40
2018-11-14T03:04:16.500Z,7.40
2018-11-14T03:06:46.772Z,7.40
2018-11-14T03:09:16.878Z,7.40
2018-11-14T03:11:47.249Z,7.30
2018-11-14T03:14:17.474Z,7.30
2018-11-14T03:16:47.912Z,7.30
2018-11-14T03:19:18.757Z,7.30
2018-11-14T03:21:49.684Z,7.30
2018-11-14T03:24:19.751Z,7.30
2018-11-14T03:26:51.000Z,7.30
2018-11-14T03:29:22.053Z,7.20
2018-11-14T03:31:53.018Z,7.20
2018-11-14T03:34:23.328Z,7.20
2018-11-14T03:36:53.517Z,7.20
2018-11-14T03:39:23.850Z,7.20
2018-11-14T03:41:54.009Z,7.20
2018-11-14T03:44:24.079Z,7.20
2018-11-14T03:46:54.572Z,7.20
2018-11-14T03:49:25.014Z,7.10
2018-11-14T03:51:55.091Z,7.10
2018-11-14T03:54:25.188Z,7.10
2018-11-14T03:56:55.801Z,7.10
2018-11-14T03:59:27.142Z,7.10
2018-11-14T04:01:58.024Z,7.10
2018-11-14T04:04:28.393Z,7.00
2018-11-14T04:06:58.623Z,7.00
2018-11-14T04:09:28.770Z,6.90
2018-11-14T04:11:58.727Z,6.90
2018-11-14T04:14:30.357Z,6.90
2018-11-14T04:17:03.239Z,6.90
2018-11-14T04:19:33.510Z,6.90
2018-11-14T04:22:03.628Z,6.90
2018-11-14T04:24:33.719Z,6.90
2018-11-14T04:27:03.803Z,6.90
2018-11-14T04:29:34.962Z,6.90
2018-11-14T04:32:05.653Z,6.90
2018-11-14T04:34:36.112Z,6.90
2018-11-14T04:37:06.495Z,6.90
2018-11-14T04:39:36.585Z,7.00
2018-11-14T04:42:06.633Z,7.00
2018-11-14T04:44:37.263Z,7.00
2018-11-14T04:47:07.599Z,7.00
2018-11-14T04:49:37.952Z,7.00
2018-11-14T04:52:08.193Z,7.00
2018-11-14T04:54:38.246Z,7.00
2018-11-14T04:57:08.534Z,7.00
2018-11-14T04:59:38.874Z,7.00
2018-11-14T05:02:09.759Z,7.00
2018-11-14T05:04:40.435Z,7.10
2018-11-14T05:07:11.300Z,7.00
2018-11-14T05:09:41.558Z,7.10
2018-11-14T05:12:11.793Z,7.10
2018-11-14T05:14:42.286Z,7.00
2018-11-14T05:17:13.458Z,7.00
2018-11-14T05:19:43.742Z,7.00
2018-11-14T05:22:14.578Z,7.00
2018-11-14T05:24:45.050Z,6.90
2018-11-14T05:27:15.352Z,6.90
2018-11-14T05:29:45.762Z,6.90
2018-11-14T05:32:16.179Z,6.90
2018-11-14T05:34:46.346Z,6.90
2018-11-14T05:37:16.689Z,6.90
2018-11-14T05:39:46.943Z,6.90
2018-11-14T05:42:17.180Z,6.80
2018-11-14T05:44:47.913Z,6.80
2018-11-14T05:47:18.748Z,6.80
2018-11-14T05:49:49.848Z,6.80
2018-11-14T05:52:20.180Z,6.80
2018-11-14T05:54:50.615Z,6.70
2018-11-14T05:57:20.873Z,6.80
2018-11-14T05:59:51.326Z,6.80
2018-11-14T06:02:21.895Z,6.70
2018-11-14T06:04:53.089Z,6.70
2018-11-14T06:07:23.706Z,6.70
2018-11-14T06:09:54.153Z,6.70
2018-11-14T06:12:24.463Z,6.70
2018-11-14T06:14:54.387Z,6.70
2018-11-14T06:17:24.448Z,6.70
2018-11-14T06:19:55.617Z,6.70
2018-11-14T06:22:26.871Z,6.70
2018-11-14T06:25:06.862Z,6.60
2018-11-14T06:27:37.275Z,6.60
2018-11-14T06:30:08.391Z,6.60
2018-11-14T06:32:39.562Z,6.60
2018-11-14T06:35:10.302Z,6.50
2018-11-14T06:37:40.461Z,6.50
2018-11-14T06:40:12.573Z,6.50
2018-11-14T06:42:43.038Z,6.50
2018-11-14T06:45:14.945Z,6.40
2018-11-14T06:47:46.677Z,6.40
2018-11-14T06:50:17.023Z,6.30
2018-11-14T06:52:48.561Z,6.30
2018-11-14T06:55:21.423Z,6.20
2018-11-14T06:57:52.805Z,6.20
2018-11-14T07:00:25.889Z,6.30
2018-11-14T07:02:56.957Z,6.30
2018-11-14T07:05:27.491Z,6.40
2018-11-14T07:07:57.909Z,6.50
2018-11-14T07:10:30.192Z,6.50
2018-11-14T07:13:05.657Z,6.50
2018-11-14T07:15:37.739Z,6.60
2018-11-14T07:18:09.115Z,6.60
2018-11-14T07:20:40.771Z,6.60
2018-11-14T07:23:11.607Z,6.50
2018-11-14T07:25:42.156Z,6.60
2018-11-14T07:28:12.617Z,6.60
2018-11-14T07:30:43.055Z,6.60
2018-11-14T07:33:13.587Z,6.60
2018-11-14T07:35:44.016Z,6.60
2018-11-14T07:38:34.717Z,6.70
2018-11-14T07:41:06.470Z,6.70
2018-11-14T07:43:37.520Z,6.70
2018-11-14T07:46:08.420Z,6.70
2018-11-14T07:48:39.743Z,6.80
2018-11-14T07:51:09.986Z,6.80
2018-11-14T07:53:40.174Z,6.90
2018-11-14T07:56:10.454Z,6.90
2018-11-14T07:58:40.726Z,7.00
2018-11-14T08:01:11.182Z,7.00
2018-11-14T08:03:41.372Z,7.00
2018-11-14T08:06:11.354Z,7.10
2018-11-14T08:08:42.169Z,7.20
2018-11-14T08:11:13.494Z,7.20
2018-11-14T08:13:44.910Z,7.30
2018-11-14T08:16:15.734Z,7.30
2018-11-14T08:18:46.021Z,7.40
2018-11-14T08:21:16.250Z,7.50
2018-11-14T08:23:46.838Z,7.50
2018-11-14T08:26:17.586Z,7.50
2018-11-14T08:28:48.405Z,7.60
2018-11-14T08:31:18.730Z,7.70
2018-11-14T08:33:49.622Z,7.80
2018-11-14T08:36:20.513Z,7.90
2018-11-14T08:38:51.601Z,8.00
2018-11-14T08:41:21.682Z,8.10
2018-11-14T08:43:52.815Z,8.10
2018-11-14T08:46:23.598Z,8.20
2018-11-14T08:48:53.806Z,8.30
2018-11-14T08:51:24.364Z,8.40
2018-11-14T08:53:54.556Z,8.50
2018-11-14T08:56:24.775Z,8.50
2018-11-14T08:58:55.723Z,8.70
2018-11-14T09:01:26.111Z,8.70
2018-11-14T09:03:56.948Z,8.80
2018-11-14T09:06:27.981Z,8.90
2018-11-14T09:08:57.980Z,9.00
2018-11-14T09:11:28.376Z,9.00
2018-11-14T09:13:58.673Z,9.10
2018-11-14T09:16:29.271Z,9.20
2018-11-14T09:18:59.315Z,9.30
2018-11-14T09:21:29.894Z,9.40
2018-11-14T09:24:00.607Z,9.50
2018-11-14T09:26:31.321Z,9.50
2018-11-14T09:29:02.207Z,9.60
2018-11-14T09:31:33.006Z,9.70
2018-11-14T09:34:03.401Z,9.70
2018-11-14T09:36:34.129Z,9.90
2018-11-14T09:39:05.385Z,10.00
2018-11-14T09:41:35.922Z,10.00
2018-11-14T09:44:06.715Z,10.10
2018-11-14T09:46:37.413Z,10.20
2018-11-14T09:49:07.546Z,10.30
2018-11-14T09:51:37.689Z,10.30
2018-11-14T09:54:08.186Z,10.40
2018-11-14T09:56:38.389Z,10.50
2018-11-14T09:59:09.246Z,10.60
2018-11-14T10:01:40.482Z,10.70
2018-11-14T10:04:11.120Z,10.80
2018-11-14T10:06:41.587Z,10.90
2018-11-14T10:09:14.035Z,10.90
2018-11-14T10:11:44.658Z,11.00
2018-11-14T10:14:15.466Z,11.20
2018-11-14T10:16:46.025Z,11.20
2018-11-14T10:19:16.572Z,11.30
2018-11-14T10:21:46.576Z,11.40
2018-11-14T10:24:17.150Z,11.50
2018-11-14T10:26:47.562Z,11.70
2018-11-14T10:29:18.172Z,11.80
2018-11-14T10:31:49.776Z,11.90
2018-11-14T10:34:20.092Z,12.00
2018-11-14T10:36:51.815Z,12.10
2018-11-14T10:39:22.379Z,12.10
2018-11-14T10:41:53.075Z,12.20
2018-11-14T10:44:23.987Z,12.20
2018-11-14T10:46:54.380Z,12.30
2018-11-14T10:49:25.464Z,12.50
2018-11-14T10:51:55.571Z,12.60
2018-11-14T10:54:26.129Z,12.80
2018-11-14T10:56:56.561Z,12.80
2018-11-14T10:59:27.597Z,12.80
2018-11-14T11:02:02.997Z,12.90
2018-11-14T11:06:03.633Z,12.90
2018-11-14T11:08:39.178Z,13.10
2018-11-14T11:11:15.358Z,13.30
2018-11-14T11:14:16.844Z,13.40
2018-11-14T11:16:52.316Z,13.30
2018-11-14T11:19:24.914Z,13.40
2018-11-14T11:21:55.289Z,13.40
2018-11-14T11:24:26.006Z,13.30
2018-11-14T11:26:56.305Z,13.30
2018-11-14T11:29:26.836Z,13.30
2018-11-14T11:31:57.800Z,13.40
2018-11-14T11:34:27.957Z,13.60
2018-11-14T11:36:58.330Z,13.80
2018-11-14T11:39:28.825Z,13.80
2018-11-14T11:41:59.203Z,14.10
2018-11-14T11:44:30.455Z,14.20
2018-11-14T11:47:00.744Z,14.20
2018-11-14T11:49:31.660Z,14.20
2018-11-14T11:52:03.092Z,14.30
2018-11-14T11:54:33.917Z,14.30
2018-11-14T11:57:03.916Z,14.30
2018-11-14T11:59:34.062Z,14.30
2018-11-14T12:02:04.454Z,14.30
2018-11-14T12:04:34.660Z,14.40
2018-11-14T12:07:05.458Z,14.40
2018-11-14T12:09:35.799Z,14.30
2018-11-14T12:12:07.161Z,14.20
2018-11-14T12:14:38.064Z,14.30
2018-11-14T12:17:08.314Z,14.10
2018-11-14T12:19:38.780Z,14.10
2018-11-14T12:22:09.200Z,14.00
2018-11-14T12:24:39.625Z,13.80
2018-11-14T12:27:09.736Z,13.80
2018-11-14T12:29:40.128Z,13.70
2018-11-14T12:32:11.114Z,13.80
2018-11-14T12:34:42.514Z,13.80
2018-11-14T12:37:13.048Z,13.80
2018-11-14T12:39:43.222Z,13.80
2018-11-14T12:42:13.610Z,13.80
2018-11-14T12:44:44.637Z,13.80
2018-11-14T12:47:15.091Z,13.80
2018-11-14T12:49:45.615Z,13.80
2018-11-14T12:52:16.555Z,13.80
2018-11-14T12:54:47.809Z,13.90
2018-11-14T12:57:18.271Z,13.80
2018-11-14T12:59:49.062Z,13.80
2018-11-14T13:02:19.705Z,13.90
2018-11-14T13:04:49.980Z,13.90
2018-11-14T13:07:20.692Z,13.90
2018-11-14T13:09:51.038Z,13.90
2018-11-14T13:12:21.378Z,13.80
2018-11-14T13:14:51.673Z,13.80
2018-11-14T13:17:22.083Z,13.70
2018-11-14T13:19:53.828Z,13.60
2018-11-14T13:22:24.911Z,13.50
2018-11-14T13:24:55.372Z,13.50
2018-11-14T13:27:25.682Z,13.40
2018-11-14T13:29:56.532Z,13.40
2018-11-14T13:32:27.207Z,13.40
2018-11-14T13:34:57.911Z,13.40
2018-11-14T13:37:28.348Z,13.50
2018-11-14T13:39:58.694Z,13.40
2018-11-14T13:42:29.962Z,13.50
2018-11-14T13:45:00.331Z,13.30
2018-11-14T13:47:30.918Z,13.40
2018-11-14T13:50:01.496Z,13.50
2018-11-14T13:52:32.687Z,13.40
2018-11-14T13:55:02.995Z,13.50
2018-11-14T13:57:33.095Z,13.40
2018-11-14T14:00:03.737Z,13.40
2018-11-14T14:02:35.105Z,13.40
2018-11-14T14:05:07.692Z,13.40
2018-11-14T14:07:37.944Z,13.30
2018-11-14T14:10:09.763Z,13.30
2018-11-14T14:12:41.684Z,13.20
2018-11-14T14:15:14.434Z,13.20
2018-11-14T14:17:46.197Z,13.20
2018-11-14T14:20:17.526Z,13.10
2018-11-14T14:22:48.289Z,13.10
2018-11-14T14:25:20.256Z,13.00
2018-11-14T14:27:50.703Z,13.00
2018-11-14T14:30:22.202Z,12.90
2018-11-14T14:32:52.549Z,12.90
2018-11-14T14:35:23.950Z,12.80
2018-11-14T14:37:54.245Z,12.90
2018-11-14T14:40:24.651Z,12.90
2018-11-14T14:42:55.152Z,12.80
2018-11-14T14:45:26.355Z,12.80
2018-11-14T14:47:56.657Z,12.80
2018-11-14T14:50:26.936Z,12.70
2018-11-14T14:52:57.115Z,12.80
2018-11-14T14:55:28.224Z,12.90
2018-11-14T14:57:58.540Z,12.70
2018-11-14T15:00:29.490Z,12.70
2018-11-14T15:02:59.726Z,12.90
2018-11-14T15:05:30.088Z,13.10
2018-11-14T15:08:00.762Z,13.20
2018-11-14T15:10:31.128Z,13.30
2018-11-14T15:13:01.605Z,13.10
2018-11-14T15:15:32.031Z,13.00
2018-11-14T15:18:02.355Z,13.00
2018-11-14T15:20:32.410Z,13.10
2018-11-14T15:23:02.942Z,13.10
2018-11-14T15:25:33.254Z,13.40
2018-11-14T15:28:05.331Z,13.60
2018-11-14T15:30:35.381Z,13.70
2018-11-14T15:33:06.094Z,13.70
2018-11-14T15:35:37.144Z,13.50
2018-11-14T15:38:08.145Z,13.30
2018-11-14T15:40:39.189Z,12.90
2018-11-14T15:43:09.791Z,12.60
2018-11-14T15:45:40.118Z,12.30
2018-11-14T15:48:10.195Z,12.00
2018-11-14T15:50:40.575Z,11.60
2018-11-14T15:53:11.122Z,11.10
2018-11-14T15:55:41.396Z,10.70
2018-11-14T15:58:12.906Z,10.30
2018-11-14T16:00:43.249Z,10.10
2018-11-14T16:03:13.953Z,9.90
2018-11-14T16:05:45.441Z,9.70
2018-11-14T16:08:16.411Z,9.50
2018-11-14T16:10:46.338Z,9.50
2018-11-14T16:13:16.807Z,9.40
2018-11-14T16:15:47.234Z,9.30
2018-11-14T16:18:17.633Z,9.20
2018-11-14T16:20:47.893Z,9.20
2018-11-14T16:23:18.019Z,9.30
2018-11-14T16:25:48.104Z,9.30
2018-11-14T16:28:18.358Z,9.30
2018-11-14T16:30:49.277Z,9.20
2018-11-14T16:33:20.426Z,9.10
2018-11-14T16:35:50.590Z,8.90
2018-11-14T16:38:20.925Z,8.80
2018-11-14T16:40:50.894Z,8.70
2018-11-14T16:43:22.155Z,8.60
2018-11-14T16:45:52.549Z,8.50
2018-11-14T16:48:22.710Z,8.40
2018-11-14T16:50:52.866Z,8.30
2018-11-14T16:53:23.106Z,8.30
2018-11-14T16:55:53.555Z,8.30
2018-11-14T16:58:23.926Z,8.30
2018-11-14T17:00:53.854Z,8.30
2018-11-14T17:03:25.643Z,8.30
2018-11-14T17:05:55.734Z,8.20
2018-11-14T17:08:27.468Z,8.20
2018-11-14T17:10:59.031Z,8.10
2018-11-14T17:13:29.235Z,8.00
2018-11-14T17:16:01.086Z,8.00
2018-11-14T17:18:31.374Z,8.00
2018-11-14T17:21:01.674Z,8.10
2018-11-14T17:23:31.588Z,8.00
2018-11-14T17:26:02.262Z,8.00
2018-11-14T17:28:32.358Z,8.00
2018-11-14T17:31:03.694Z,8.00
2018-11-14T17:33:34.059Z,8.00
2018-11-14T17:36:05.645Z,8.00
2018-11-14T17:38:36.755Z,8.00
2018-11-14T17:41:07.225Z,7.90
2018-11-14T17:43:38.617Z,7.90
2018-11-14T17:46:11.173Z,7.90
2018-11-14T17:48:43.481Z,8.00
2018-11-14T17:51:14.939Z,8.00
2018-11-14T17:53:47.882Z,8.00
2018-11-14T17:56:19.748Z,8.00
2018-11-14T17:58:50.568Z,8.00
2018-11-14T18:01:21.675Z,8.00
2018-11-14T18:03:51.828Z,7.90
2018-11-14T18:06:22.431Z,7.90
2018-11-14T18:08:52.427Z,7.90
2018-11-14T18:11:22.910Z,7.90
2018-11-14T18:13:53.162Z,7.90
2018-11-14T18:16:23.742Z,7.90
2018-11-14T18:18:53.906Z,7.90
2018-11-14T18:21:24.152Z,7.90
2018-11-14T18:23:55.197Z,7.80
2018-11-14T18:26:25.576Z,7.80
2018-11-14T18:28:56.165Z,7.70
2018-11-14T18:31:26.342Z,7.60
2018-11-14T18:33:56.431Z,7.50
2018-11-14T18:36:26.741Z,7.60
2018-11-14T18:38:56.925Z,7.50
2018-11-14T18:41:27.188Z,7.50
2018-11-14T18:43:57.386Z,7.50
2018-11-14T18:46:27.804Z,7.40
2018-11-14T18:48:59.645Z,7.40
2018-11-14T18:51:29.758Z,7.30
2018-11-14T18:53:59.894Z,7.30
2018-11-14T18:56:30.180Z,7.30
2018-11-14T18:59:00.738Z,7.30
2018-11-14T19:01:31.360Z,7.20
2018-11-14T19:04:01.424Z,7.20
2018-11-14T19:06:32.279Z,7.10
2018-11-14T19:09:02.341Z,7.10
2018-11-14T19:11:32.771Z,7.20
2018-11-14T19:14:02.945Z,7.30
2018-11-14T19:16:33.031Z,7.30
2018-11-14T19:19:03.324Z,7.30
2018-11-14T19:21:33.466Z,7.20
2018-11-14T19:24:04.547Z,7.10
2018-11-14T19:26:35.654Z,7.10
2018-11-14T19:29:06.160Z,7.10
2018-11-14T19:31:36.432Z,7.00
2018-11-14T19:34:06.431Z,6.90
2018-11-14T19:36:37.145Z,6.90
2018-11-14T19:39:11.090Z,6.80
2018-11-14T19:41:43.139Z,6.80
2018-11-14T19:44:13.568Z,6.70
2018-11-14T19:46:43.917Z,6.70
2018-11-14T19:49:14.418Z,6.70
2018-11-14T19:51:44.667Z,6.60
2018-11-14T19:54:15.005Z,6.60
2018-11-14T19:56:45.396Z,6.60
2018-11-14T19:59:16.453Z,6.60
2018-11-14T20:01:46.717Z,6.50
2018-11-14T20:04:17.213Z,6.50
2018-11-14T20:06:47.570Z,6.50
2018-11-14T20:09:18.042Z,6.40
2018-11-14T20:11:49.317Z,6.40
2018-11-14T20:14:19.825Z,6.40
2018-11-14T20:16:50.150Z,6.40
2018-11-14T20:19:20.292Z,6.40
2018-11-14T20:21:50.275Z,6.50
2018-11-14T20:24:21.336Z,6.50
2018-11-14T20:26:52.100Z,6.40
2018-11-14T20:29:22.692Z,6.30
2018-11-14T20:31:53.141Z,6.40
2018-11-14T20:34:23.630Z,6.40
2018-11-14T20:36:53.806Z,6.40
2018-11-14T20:39:24.159Z,6.40
2018-11-14T20:41:55.514Z,6.30
2018-11-14T20:44:25.706Z,6.40
2018-11-14T20:46:56.042Z,6.40
2018-11-14T20:49:26.051Z,6.40
2018-11-14T20:51:56.173Z,6.40
2018-11-14T20:54:27.126Z,6.30
2018-11-14T20:56:58.075Z,6.40
2018-11-14T20:59:29.179Z,6.40
2018-11-14T21:02:00.853Z,6.40
2018-11-14T21:04:30.879Z,6.30
2018-11-14T21:07:01.402Z,6.30
2018-11-14T21:09:34.229Z,6.30
2018-11-14T21:12:04.325Z,6.20
2018-11-14T21:14:34.516Z,6.20
2018-11-14T21:17:04.801Z,6.10
2018-11-14T21:19:35.347Z,6.10
2018-11-14T21:22:05.604Z,6.00
2018-11-14T21:24:36.823Z,6.00
2018-11-14T21:27:07.909Z,6.00
2018-11-14T21:29:38.577Z,6.00
2018-11-14T21:32:08.829Z,6.00
2018-11-14T21:34:39.277Z,6.20
2018-11-14T21:37:09.662Z,6.20
2018-11-14T21:39:39.850Z,6.20
2018-11-14T21:42:10.164Z,6.30
2018-11-14T21:44:40.406Z,6.30
2018-11-14T21:47:10.474Z,6.30
2018-11-14T21:49:41.456Z,6.40
2018-11-14T21:52:11.891Z,6.50
2018-11-14T21:54:42.148Z,6.50
2018-11-14T21:57:12.204Z,6.50
2018-11-14T21:59:42.497Z,6.30
2018-11-14T22:02:13.369Z,6.30
2018-11-14T22:04:43.681Z,6.30
2018-11-14T22:07:14.477Z,6.20
2018-11-14T22:09:45.338Z,6.10
2018-11-14T22:12:16.867Z,6.10
2018-11-14T22:14:46.939Z,6.00
2018-11-14T22:17:16.977Z,6.00
2018-11-14T22:19:47.507Z,6.00
2018-11-14T22:22:17.952Z,6.00
2018-11-14T22:24:48.116Z,6.00
2018-11-14T22:27:18.449Z,6.10
2018-11-14T22:29:48.826Z,6.10
2018-11-14T22:32:19.189Z,6.10
2018-11-14T22:34:49.260Z,6.10
2018-11-14T22:37:19.705Z,6.10
2018-11-14T22:39:49.901Z,6.20
2018-11-14T22:42:21.401Z,6.40
2018-11-14T22:44:53.603Z,6.40
2018-11-14T22:47:23.864Z,6.40
2018-11-14T22:49:54.981Z,6.50
2018-11-14T22:52:25.367Z,6.50
2018-11-14T22:54:55.776Z,6.40
2018-11-14T22:57:26.147Z,6.40
2018-11-14T22:59:56.300Z,6.30
2018-11-14T23:02:26.640Z,6.20
2018-11-14T23:04:56.978Z,6.10
2018-11-14T23:07:27.306Z,6.10
2018-11-14T23:09:58.683Z,6.00
2018-11-14T23:12:29.370Z,6.00
2018-11-14T23:14:59.817Z,6.00
2018-11-14T23:17:30.176Z,6.00
2018-11-14T23:20:00.191Z,6.00
2018-11-14T23:22:30.335Z,5.90
2018-11-14T23:25:00.380Z,5.90
2018-11-14T23:27:30.607Z,5.90
2018-11-14T23:30:01.463Z,6.00
2018-11-14T23:32:31.698Z,6.00
2018-11-14T23:35:06.945Z,6.00
2018-11-14T23:37:37.190Z,6.10
2018-11-14T23:40:07.969Z,6.00
2018-11-14T23:42:38.175Z,5.90
2018-11-14T23:45:11.642Z,5.80
2018-11-14T23:47:42.621Z,5.70
2018-11-14T23:50:15.782Z,5.70
2018-11-14T23:52:47.482Z,5.60
2018-11-14T23:55:18.910Z,5.60
2018-11-14T23:57:49.178Z,5.50
